sensor_id;sensor_type;location;lat;lon;timestamp;P1;durP1;ratioP1;P2;durP2;ratioP2
81154;SDS011;70631;50.436;7.826;2023-08-12T00:02:21;4.03;;;3.33;;
81154;SDS011;70631;50.436;7.826;2023-08-12T00:04:46;4.10;;;3.70;;
81154;SDS011;70631;50.436;7.826;2023-08-12T00:07:12;6.47;;;4.20;;
81154;SDS011;70631;50.436;7.826;2023-08-12T00:09:38;4.63;;;3.20;;
81154;SDS011;70631;50.436;7.826;2023-08-12T00:12:03;5.25;;;3.55;;
81154;SDS011;70631;50.436;7.826;2023-08-12T00:14:29;7.63;;;3.70;;
81154;SDS011;70631;50.436;7.826;2023-08-12T00:16:54;5.55;;;3.65;;
81154;SDS011;70631;50.436;7.826;2023-08-12T00:19:20;7.25;;;4.03;;
81154;SDS011;70631;50.436;7.826;2023-08-12T00:21:45;4.65;;;4.05;;
81154;SDS011;70631;50.436;7.826;2023-08-12T00:24:10;5.10;;;3.97;;
81154;SDS011;70631;50.436;7.826;2023-08-12T00:26:36;8.90;;;4.83;;
81154;SDS011;70631;50.436;7.826;2023-08-12T00:29:01;9.13;;;4.93;;
81154;SDS011;70631;50.436;7.826;2023-08-12T00:31:26;6.80;;;5.23;;
81154;SDS011;70631;50.436;7.826;2023-08-12T00:33:51;5.77;;;4.53;;
81154;SDS011;70631;50.436;7.826;2023-08-12T00:36:17;8.00;;;5.20;;
81154;SDS011;70631;50.436;7.826;2023-08-12T00:38:42;7.90;;;5.30;;
81154;SDS011;70631;50.436;7.826;2023-08-12T00:41:07;7.23;;;5.50;;
81154;SDS011;70631;50.436;7.826;2023-08-12T00:43:32;5.82;;;5.15;;
81154;SDS011;70631;50.436;7.826;2023-08-12T00:45:58;8.70;;;6.33;;
81154;SDS011;70631;50.436;7.826;2023-08-12T00:48:23;8.60;;;6.83;;
81154;SDS011;70631;50.436;7.826;2023-08-12T00:50:48;17.23;;;6.57;;
81154;SDS011;70631;50.436;7.826;2023-08-12T00:53:14;10.93;;;6.28;;
81154;SDS011;70631;50.436;7.826;2023-08-12T00:55:41;9.75;;;6.47;;
81154;SDS011;70631;50.436;7.826;2023-08-12T00:58:06;13.18;;;8.05;;
81154;SDS011;70631;50.436;7.826;2023-08-12T01:00:31;10.20;;;7.60;;
81154;SDS011;70631;50.436;7.826;2023-08-12T01:02:57;8.57;;;6.85;;
81154;SDS011;70631;50.436;7.826;2023-08-12T01:05:22;11.15;;;8.13;;
81154;SDS011;70631;50.436;7.826;2023-08-12T01:07:48;10.88;;;8.63;;
81154;SDS011;70631;50.436;7.826;2023-08-12T01:10:14;13.23;;;9.43;;
81154;SDS011;70631;50.436;7.826;2023-08-12T01:12:42;13.48;;;9.38;;
81154;SDS011;70631;50.436;7.826;2023-08-12T01:15:15;15.27;;;9.70;;
81154;SDS011;70631;50.436;7.826;2023-08-12T01:17:46;16.10;;;12.10;;
81154;SDS011;70631;50.436;7.826;2023-08-12T01:20:17;14.75;;;11.82;;
81154;SDS011;70631;50.436;7.826;2023-08-12T01:22:49;15.25;;;11.65;;
81154;SDS011;70631;50.436;7.826;2023-08-12T01:25:23;17.40;;;13.05;;
81154;SDS011;70631;50.436;7.826;2023-08-12T01:27:50;16.70;;;11.88;;
81154;SDS011;70631;50.436;7.826;2023-08-12T01:30:15;16.35;;;12.85;;
81154;SDS011;70631;50.436;7.826;2023-08-12T01:35:23;18.48;;;13.70;;
81154;SDS011;70631;50.436;7.826;2023-08-12T01:37:55;24.60;;;16.77;;
81154;SDS011;70631;50.436;7.826;2023-08-12T01:40:23;21.75;;;15.93;;
81154;SDS011;70631;50.436;7.826;2023-08-12T01:42:49;21.23;;;15.95;;
81154;SDS011;70631;50.436;7.826;2023-08-12T01:45:15;21.73;;;16.23;;
81154;SDS011;70631;50.436;7.826;2023-08-12T01:47:43;27.00;;;18.67;;
81154;SDS011;70631;50.436;7.826;2023-08-12T01:50:09;26.27;;;18.92;;
81154;SDS011;70631;50.436;7.826;2023-08-12T01:52:35;27.88;;;20.33;;
81154;SDS011;70631;50.436;7.826;2023-08-12T01:55:00;25.17;;;18.93;;
81154;SDS011;70631;50.436;7.826;2023-08-12T01:57:25;33.43;;;21.37;;
81154;SDS011;70631;50.436;7.826;2023-08-12T01:59:51;22.83;;;19.43;;
81154;SDS011;70631;50.436;7.826;2023-08-12T02:02:16;28.83;;;20.73;;
81154;SDS011;70631;50.436;7.826;2023-08-12T02:04:41;27.80;;;20.33;;
81154;SDS011;70631;50.436;7.826;2023-08-12T02:07:08;25.73;;;20.60;;
81154;SDS011;70631;50.436;7.826;2023-08-12T02:09:33;31.42;;;22.33;;
81154;SDS011;70631;50.436;7.826;2023-08-12T02:11:58;30.60;;;23.30;;
81154;SDS011;70631;50.436;7.826;2023-08-12T02:14:24;28.43;;;23.57;;
81154;SDS011;70631;50.436;7.826;2023-08-12T02:16:49;30.27;;;23.20;;
81154;SDS011;70631;50.436;7.826;2023-08-12T02:19:14;37.63;;;24.90;;
81154;SDS011;70631;50.436;7.826;2023-08-12T02:21:40;31.33;;;22.10;;
81154;SDS011;70631;50.436;7.826;2023-08-12T02:24:06;33.55;;;23.73;;
81154;SDS011;70631;50.436;7.826;2023-08-12T02:26:33;26.30;;;20.90;;
81154;SDS011;70631;50.436;7.826;2023-08-12T02:28:58;24.08;;;20.40;;
81154;SDS011;70631;50.436;7.826;2023-08-12T02:31:23;24.37;;;18.77;;
81154;SDS011;70631;50.436;7.826;2023-08-12T02:33:49;18.50;;;15.97;;
81154;SDS011;70631;50.436;7.826;2023-08-12T02:36:16;28.52;;;18.88;;
81154;SDS011;70631;50.436;7.826;2023-08-12T02:38:42;29.87;;;19.87;;
81154;SDS011;70631;50.436;7.826;2023-08-12T02:41:07;27.43;;;18.57;;
81154;SDS011;70631;50.436;7.826;2023-08-12T02:43:32;30.85;;;20.17;;
81154;SDS011;70631;50.436;7.826;2023-08-12T02:45:58;24.38;;;18.20;;
81154;SDS011;70631;50.436;7.826;2023-08-12T02:48:23;26.03;;;17.97;;
81154;SDS011;70631;50.436;7.826;2023-08-12T02:50:48;28.80;;;20.23;;
81154;SDS011;70631;50.436;7.826;2023-08-12T02:53:14;26.30;;;18.00;;
81154;SDS011;70631;50.436;7.826;2023-08-12T02:55:40;29.83;;;19.92;;
81154;SDS011;70631;50.436;7.826;2023-08-12T02:58:05;24.40;;;18.63;;
81154;SDS011;70631;50.436;7.826;2023-08-12T03:00:30;26.67;;;19.27;;
81154;SDS011;70631;50.436;7.826;2023-08-12T03:02:56;29.35;;;20.73;;
81154;SDS011;70631;50.436;7.826;2023-08-12T03:05:21;22.47;;;17.53;;
81154;SDS011;70631;50.436;7.826;2023-08-12T03:07:48;21.98;;;17.17;;
81154;SDS011;70631;50.436;7.826;2023-08-12T03:10:14;22.42;;;17.92;;
81154;SDS011;70631;50.436;7.826;2023-08-12T03:12:39;20.15;;;16.63;;
81154;SDS011;70631;50.436;7.826;2023-08-12T03:15:07;21.10;;;16.90;;
81154;SDS011;70631;50.436;7.826;2023-08-12T03:17:33;20.60;;;16.92;;
81154;SDS011;70631;50.436;7.826;2023-08-12T03:19:58;19.50;;;15.55;;
81154;SDS011;70631;50.436;7.826;2023-08-12T03:22:24;17.67;;;14.05;;
81154;SDS011;70631;50.436;7.826;2023-08-12T03:24:53;18.67;;;15.65;;
81154;SDS011;70631;50.436;7.826;2023-08-12T03:27:18;16.85;;;14.52;;
81154;SDS011;70631;50.436;7.826;2023-08-12T03:29:43;20.73;;;15.47;;
81154;SDS011;70631;50.436;7.826;2023-08-12T03:32:09;16.80;;;14.37;;
81154;SDS011;70631;50.436;7.826;2023-08-12T03:34:34;15.63;;;13.30;;
81154;SDS011;70631;50.436;7.826;2023-08-12T03:36:59;17.70;;;14.20;;
81154;SDS011;70631;50.436;7.826;2023-08-12T03:39:24;15.80;;;14.10;;
81154;SDS011;70631;50.436;7.826;2023-08-12T03:41:50;15.90;;;13.40;;
81154;SDS011;70631;50.436;7.826;2023-08-12T03:44:15;15.20;;;13.13;;
81154;SDS011;70631;50.436;7.826;2023-08-12T03:46:41;15.02;;;12.10;;
81154;SDS011;70631;50.436;7.826;2023-08-12T03:49:06;10.93;;;9.83;;
81154;SDS011;70631;50.436;7.826;2023-08-12T03:51:31;11.63;;;9.90;;
81154;SDS011;70631;50.436;7.826;2023-08-12T03:53:56;11.17;;;10.07;;
81154;SDS011;70631;50.436;7.826;2023-08-12T03:56:22;12.07;;;9.83;;
81154;SDS011;70631;50.436;7.826;2023-08-12T03:58:47;10.20;;;9.20;;
81154;SDS011;70631;50.436;7.826;2023-08-12T04:01:12;9.50;;;8.50;;
81154;SDS011;70631;50.436;7.826;2023-08-12T04:03:37;11.50;;;9.63;;
81154;SDS011;70631;50.436;7.826;2023-08-12T04:06:03;15.27;;;12.87;;
81154;SDS011;70631;50.436;7.826;2023-08-12T04:08:28;17.37;;;12.87;;
81154;SDS011;70631;50.436;7.826;2023-08-12T04:10:53;14.95;;;13.13;;
81154;SDS011;70631;50.436;7.826;2023-08-12T04:13:19;14.50;;;12.93;;
81154;SDS011;70631;50.436;7.826;2023-08-12T04:15:47;15.17;;;13.57;;
81154;SDS011;70631;50.436;7.826;2023-08-12T04:18:14;16.75;;;13.13;;
81154;SDS011;70631;50.436;7.826;2023-08-12T04:20:40;16.23;;;13.02;;
81154;SDS011;70631;50.436;7.826;2023-08-12T04:23:05;15.00;;;12.70;;
81154;SDS011;70631;50.436;7.826;2023-08-12T04:25:30;18.30;;;14.87;;
81154;SDS011;70631;50.436;7.826;2023-08-12T04:27:56;16.47;;;13.13;;
81154;SDS011;70631;50.436;7.826;2023-08-12T04:30:21;19.10;;;13.13;;
81154;SDS011;70631;50.436;7.826;2023-08-12T04:32:46;17.70;;;13.37;;
81154;SDS011;70631;50.436;7.826;2023-08-12T04:35:11;18.23;;;14.67;;
81154;SDS011;70631;50.436;7.826;2023-08-12T04:37:37;19.25;;;15.82;;
81154;SDS011;70631;50.436;7.826;2023-08-12T04:40:02;16.40;;;13.47;;
81154;SDS011;70631;50.436;7.826;2023-08-12T04:42:32;21.33;;;16.00;;
81154;SDS011;70631;50.436;7.826;2023-08-12T04:44:57;24.30;;;16.58;;
81154;SDS011;70631;50.436;7.826;2023-08-12T04:47:23;20.33;;;15.40;;
81154;SDS011;70631;50.436;7.826;2023-08-12T04:49:48;25.00;;;17.17;;
81154;SDS011;70631;50.436;7.826;2023-08-12T04:52:13;23.75;;;16.25;;
81154;SDS011;70631;50.436;7.826;2023-08-12T04:54:39;20.63;;;15.17;;
81154;SDS011;70631;50.436;7.826;2023-08-12T04:57:04;23.63;;;16.20;;
81154;SDS011;70631;50.436;7.826;2023-08-12T04:59:30;20.45;;;14.13;;
81154;SDS011;70631;50.436;7.826;2023-08-12T05:01:55;21.80;;;15.82;;
81154;SDS011;70631;50.436;7.826;2023-08-12T05:04:21;20.73;;;15.10;;
81154;SDS011;70631;50.436;7.826;2023-08-12T05:06:46;22.07;;;15.87;;
81154;SDS011;70631;50.436;7.826;2023-08-12T05:09:11;23.83;;;16.90;;
81154;SDS011;70631;50.436;7.826;2023-08-12T05:11:37;27.20;;;16.67;;
81154;SDS011;70631;50.436;7.826;2023-08-12T05:14:02;23.57;;;15.67;;
81154;SDS011;70631;50.436;7.826;2023-08-12T05:16:27;23.75;;;16.98;;
81154;SDS011;70631;50.436;7.826;2023-08-12T05:18:54;24.20;;;17.15;;
81154;SDS011;70631;50.436;7.826;2023-08-12T05:21:19;25.13;;;17.25;;
81154;SDS011;70631;50.436;7.826;2023-08-12T05:23:44;23.40;;;17.20;;
81154;SDS011;70631;50.436;7.826;2023-08-12T05:26:10;26.00;;;17.63;;
81154;SDS011;70631;50.436;7.826;2023-08-12T05:28:35;23.80;;;17.53;;
81154;SDS011;70631;50.436;7.826;2023-08-12T05:31:00;24.13;;;17.67;;
81154;SDS011;70631;50.436;7.826;2023-08-12T05:33:25;24.63;;;17.33;;
81154;SDS011;70631;50.436;7.826;2023-08-12T05:35:51;20.30;;;16.33;;
81154;SDS011;70631;50.436;7.826;2023-08-12T05:38:16;21.03;;;15.43;;
81154;SDS011;70631;50.436;7.826;2023-08-12T05:40:41;20.25;;;14.23;;
81154;SDS011;70631;50.436;7.826;2023-08-12T05:43:07;17.00;;;11.85;;
81154;SDS011;70631;50.436;7.826;2023-08-12T05:45:32;18.77;;;12.57;;
81154;SDS011;70631;50.436;7.826;2023-08-12T05:47:57;18.80;;;13.40;;
81154;SDS011;70631;50.436;7.826;2023-08-12T05:50:23;17.77;;;12.83;;
81154;SDS011;70631;50.436;7.826;2023-08-12T05:52:48;17.87;;;12.10;;
81154;SDS011;70631;50.436;7.826;2023-08-12T05:55:13;17.40;;;12.27;;
81154;SDS011;70631;50.436;7.826;2023-08-12T05:57:39;15.55;;;11.20;;
81154;SDS011;70631;50.436;7.826;2023-08-12T06:00:04;14.23;;;9.97;;
81154;SDS011;70631;50.436;7.826;2023-08-12T06:02:30;14.50;;;9.07;;
81154;SDS011;70631;50.436;7.826;2023-08-12T06:04:56;12.98;;;10.98;;
81154;SDS011;70631;50.436;7.826;2023-08-12T06:07:21;14.67;;;11.53;;
81154;SDS011;70631;50.436;7.826;2023-08-12T06:09:48;14.77;;;11.07;;
81154;SDS011;70631;50.436;7.826;2023-08-12T06:12:14;17.38;;;12.02;;
81154;SDS011;70631;50.436;7.826;2023-08-12T06:14:39;15.30;;;11.93;;
81154;SDS011;70631;50.436;7.826;2023-08-12T06:17:05;14.88;;;11.73;;
81154;SDS011;70631;50.436;7.826;2023-08-12T06:19:31;12.93;;;11.00;;
81154;SDS011;70631;50.436;7.826;2023-08-12T06:21:56;16.37;;;11.30;;
81154;SDS011;70631;50.436;7.826;2023-08-12T06:24:21;13.82;;;10.57;;
81154;SDS011;70631;50.436;7.826;2023-08-12T06:26:47;15.67;;;10.97;;
81154;SDS011;70631;50.436;7.826;2023-08-12T06:29:12;10.67;;;8.97;;
81154;SDS011;70631;50.436;7.826;2023-08-12T06:31:37;12.67;;;10.70;;
81154;SDS011;70631;50.436;7.826;2023-08-12T06:34:02;11.50;;;9.97;;
81154;SDS011;70631;50.436;7.826;2023-08-12T06:36:28;10.60;;;9.35;;
81154;SDS011;70631;50.436;7.826;2023-08-12T06:38:53;11.37;;;8.93;;
81154;SDS011;70631;50.436;7.826;2023-08-12T06:41:18;8.73;;;7.83;;
81154;SDS011;70631;50.436;7.826;2023-08-12T06:43:43;8.17;;;7.37;;
81154;SDS011;70631;50.436;7.826;2023-08-12T06:46:09;9.63;;;7.70;;
81154;SDS011;70631;50.436;7.826;2023-08-12T06:48:34;8.17;;;7.23;;
81154;SDS011;70631;50.436;7.826;2023-08-12T06:50:59;8.85;;;7.82;;
81154;SDS011;70631;50.436;7.826;2023-08-12T06:53:25;8.65;;;7.70;;
81154;SDS011;70631;50.436;7.826;2023-08-12T06:55:51;12.02;;;10.57;;
81154;SDS011;70631;50.436;7.826;2023-08-12T06:58:16;13.63;;;10.93;;
81154;SDS011;70631;50.436;7.826;2023-08-12T07:00:41;11.13;;;10.03;;
81154;SDS011;70631;50.436;7.826;2023-08-12T07:03:07;12.43;;;10.80;;
81154;SDS011;70631;50.436;7.826;2023-08-12T07:05:32;12.27;;;10.98;;
81154;SDS011;70631;50.436;7.826;2023-08-12T07:07:58;12.50;;;10.67;;
81154;SDS011;70631;50.436;7.826;2023-08-12T07:10:23;12.70;;;10.53;;
81154;SDS011;70631;50.436;7.826;2023-08-12T07:12:48;16.53;;;12.30;;
81154;SDS011;70631;50.436;7.826;2023-08-12T07:15:13;11.77;;;10.40;;
81154;SDS011;70631;50.436;7.826;2023-08-12T07:17:39;11.00;;;8.97;;
81154;SDS011;70631;50.436;7.826;2023-08-12T07:20:05;11.18;;;9.85;;
81154;SDS011;70631;50.436;7.826;2023-08-12T07:22:31;10.80;;;9.70;;
81154;SDS011;70631;50.436;7.826;2023-08-12T07:24:56;11.17;;;10.07;;
81154;SDS011;70631;50.436;7.826;2023-08-12T07:27:24;12.48;;;9.90;;
81154;SDS011;70631;50.436;7.826;2023-08-12T07:29:50;14.75;;;12.18;;
81154;SDS011;70631;50.436;7.826;2023-08-12T07:32:15;17.00;;;12.60;;
81154;SDS011;70631;50.436;7.826;2023-08-12T07:34:40;14.97;;;12.20;;
81154;SDS011;70631;50.436;7.826;2023-08-12T07:37:06;20.20;;;13.47;;
81154;SDS011;70631;50.436;7.826;2023-08-12T07:39:31;15.70;;;12.40;;
81154;SDS011;70631;50.436;7.826;2023-08-12T07:41:56;16.40;;;13.27;;
81154;SDS011;70631;50.436;7.826;2023-08-12T07:44:21;17.80;;;13.83;;
81154;SDS011;70631;50.436;7.826;2023-08-12T07:46:47;17.53;;;13.20;;
81154;SDS011;70631;50.436;7.826;2023-08-12T07:49:12;19.17;;;13.63;;
81154;SDS011;70631;50.436;7.826;2023-08-12T07:51:37;18.00;;;13.77;;
81154;SDS011;70631;50.436;7.826;2023-08-12T07:54:03;17.77;;;13.43;;
81154;SDS011;70631;50.436;7.826;2023-08-12T07:56:28;16.30;;;12.43;;
81154;SDS011;70631;50.436;7.826;2023-08-12T07:58:53;19.57;;;13.47;;
81154;SDS011;70631;50.436;7.826;2023-08-12T08:01:18;14.13;;;11.33;;
81154;SDS011;70631;50.436;7.826;2023-08-12T08:03:44;18.30;;;13.57;;
81154;SDS011;70631;50.436;7.826;2023-08-12T08:06:09;16.67;;;11.60;;
81154;SDS011;70631;50.436;7.826;2023-08-12T08:08:34;13.03;;;11.63;;
81154;SDS011;70631;50.436;7.826;2023-08-12T08:11:00;16.45;;;12.70;;
81154;SDS011;70631;50.436;7.826;2023-08-12T08:13:25;16.37;;;12.97;;
81154;SDS011;70631;50.436;7.826;2023-08-12T08:15:50;13.63;;;11.93;;
81154;SDS011;70631;50.436;7.826;2023-08-12T08:18:15;13.37;;;10.73;;
81154;SDS011;70631;50.436;7.826;2023-08-12T08:20:43;10.40;;;9.00;;
81154;SDS011;70631;50.436;7.826;2023-08-12T08:23:09;10.60;;;8.77;;
81154;SDS011;70631;50.436;7.826;2023-08-12T08:25:34;12.20;;;9.97;;
81154;SDS011;70631;50.436;7.826;2023-08-12T08:27:59;12.00;;;9.60;;
81154;SDS011;70631;50.436;7.826;2023-08-12T08:30:25;10.17;;;9.17;;
81154;SDS011;70631;50.436;7.826;2023-08-12T08:32:50;13.02;;;10.30;;
81154;SDS011;70631;50.436;7.826;2023-08-12T08:35:16;10.13;;;8.98;;
81154;SDS011;70631;50.436;7.826;2023-08-12T08:37:41;12.52;;;8.80;;
81154;SDS011;70631;50.436;7.826;2023-08-12T08:40:07;12.03;;;10.93;;
81154;SDS011;70631;50.436;7.826;2023-08-12T08:42:33;10.07;;;9.07;;
81154;SDS011;70631;50.436;7.826;2023-08-12T08:45:00;12.10;;;10.40;;
81154;SDS011;70631;50.436;7.826;2023-08-12T08:47:27;10.50;;;9.40;;
81154;SDS011;70631;50.436;7.826;2023-08-12T08:49:54;10.25;;;9.15;;
81154;SDS011;70631;50.436;7.826;2023-08-12T08:52:21;10.73;;;9.32;;
81154;SDS011;70631;50.436;7.826;2023-08-12T08:54:47;7.97;;;7.10;;
81154;SDS011;70631;50.436;7.826;2023-08-12T08:57:13;12.20;;;8.43;;
81154;SDS011;70631;50.436;7.826;2023-08-12T08:59:38;10.60;;;8.88;;
81154;SDS011;70631;50.436;7.826;2023-08-12T09:02:04;7.70;;;7.00;;
81154;SDS011;70631;50.436;7.826;2023-08-12T09:04:30;8.40;;;6.85;;
81154;SDS011;70631;50.436;7.826;2023-08-12T09:06:57;4.88;;;4.38;;
81154;SDS011;70631;50.436;7.826;2023-08-12T09:09:23;5.60;;;4.80;;
81154;SDS011;70631;50.436;7.826;2023-08-12T09:11:49;5.10;;;4.20;;
81154;SDS011;70631;50.436;7.826;2023-08-12T09:14:17;5.95;;;4.80;;
81154;SDS011;70631;50.436;7.826;2023-08-12T09:16:43;4.72;;;2.85;;
81154;SDS011;70631;50.436;7.826;2023-08-12T09:19:08;2.50;;;2.30;;
81154;SDS011;70631;50.436;7.826;2023-08-12T09:21:34;2.30;;;2.10;;
81154;SDS011;70631;50.436;7.826;2023-08-12T09:24:02;3.13;;;2.30;;
81154;SDS011;70631;50.436;7.826;2023-08-12T09:26:29;3.67;;;2.50;;
81154;SDS011;70631;50.436;7.826;2023-08-12T09:28:55;3.22;;;2.78;;
81154;SDS011;70631;50.436;7.826;2023-08-12T09:31:24;3.10;;;2.70;;
81154;SDS011;70631;50.436;7.826;2023-08-12T09:33:51;2.80;;;2.55;;
81154;SDS011;70631;50.436;7.826;2023-08-12T09:36:17;2.47;;;2.28;;
81154;SDS011;70631;50.436;7.826;2023-08-12T09:38:46;2.85;;;2.53;;
81154;SDS011;70631;50.436;7.826;2023-08-12T09:41:12;3.17;;;2.70;;
81154;SDS011;70631;50.436;7.826;2023-08-12T09:43:41;4.05;;;2.70;;
81154;SDS011;70631;50.436;7.826;2023-08-12T09:46:10;3.35;;;2.58;;
81154;SDS011;70631;50.436;7.826;2023-08-12T09:48:37;3.72;;;3.15;;
81154;SDS011;70631;50.436;7.826;2023-08-12T09:51:02;3.55;;;3.08;;
81154;SDS011;70631;50.436;7.826;2023-08-12T09:53:28;4.18;;;2.70;;
81154;SDS011;70631;50.436;7.826;2023-08-12T09:55:53;3.43;;;2.97;;
81154;SDS011;70631;50.436;7.826;2023-08-12T09:58:19;6.38;;;2.92;;
81154;SDS011;70631;50.436;7.826;2023-08-12T10:00:48;4.00;;;2.72;;
81154;SDS011;70631;50.436;7.826;2023-08-12T10:03:14;3.50;;;2.63;;
81154;SDS011;70631;50.436;7.826;2023-08-12T10:05:42;4.78;;;2.60;;
81154;SDS011;70631;50.436;7.826;2023-08-12T10:08:08;3.92;;;2.35;;
81154;SDS011;70631;50.436;7.826;2023-08-12T10:10:35;4.22;;;2.58;;
81154;SDS011;70631;50.436;7.826;2023-08-12T10:13:00;2.92;;;2.72;;
81154;SDS011;70631;50.436;7.826;2023-08-12T10:15:26;2.95;;;2.42;;
81154;SDS011;70631;50.436;7.826;2023-08-12T10:17:52;3.15;;;2.40;;
81154;SDS011;70631;50.436;7.826;2023-08-12T10:20:21;5.05;;;2.63;;
81154;SDS011;70631;50.436;7.826;2023-08-12T10:22:51;2.50;;;2.30;;
81154;SDS011;70631;50.436;7.826;2023-08-12T10:25:18;2.40;;;2.20;;
81154;SDS011;70631;50.436;7.826;2023-08-12T10:27:46;4.80;;;2.55;;
81154;SDS011;70631;50.436;7.826;2023-08-12T10:30:12;4.50;;;2.38;;
81154;SDS011;70631;50.436;7.826;2023-08-12T10:32:38;2.78;;;2.50;;
81154;SDS011;70631;50.436;7.826;2023-08-12T10:35:04;3.70;;;2.42;;
81154;SDS011;70631;50.436;7.826;2023-08-12T10:37:33;4.25;;;2.10;;
81154;SDS011;70631;50.436;7.826;2023-08-12T10:40:02;3.78;;;2.45;;
81154;SDS011;70631;50.436;7.826;2023-08-12T10:42:42;4.47;;;3.13;;
81154;SDS011;70631;50.436;7.826;2023-08-12T10:45:08;3.45;;;2.50;;
81154;SDS011;70631;50.436;7.826;2023-08-12T10:50:20;2.78;;;2.03;;
81154;SDS011;70631;50.436;7.826;2023-08-12T10:52:46;3.03;;;1.90;;
81154;SDS011;70631;50.436;7.826;2023-08-12T10:55:22;2.42;;;1.75;;
81154;SDS011;70631;50.436;7.826;2023-08-12T10:57:52;2.25;;;1.88;;
81154;SDS011;70631;50.436;7.826;2023-08-12T11:00:20;2.95;;;2.10;;
81154;SDS011;70631;50.436;7.826;2023-08-12T11:02:51;2.67;;;1.73;;
81154;SDS011;70631;50.436;7.826;2023-08-12T11:05:18;2.70;;;1.77;;
81154;SDS011;70631;50.436;7.826;2023-08-12T11:07:45;2.83;;;2.25;;
81154;SDS011;70631;50.436;7.826;2023-08-12T11:10:14;2.63;;;1.88;;
81154;SDS011;70631;50.436;7.826;2023-08-12T11:12:47;2.92;;;1.92;;
81154;SDS011;70631;50.436;7.826;2023-08-12T11:15:40;3.80;;;2.40;;
81154;SDS011;70631;50.436;7.826;2023-08-12T11:18:13;3.92;;;2.00;;
81154;SDS011;70631;50.436;7.826;2023-08-12T11:20:41;2.38;;;2.03;;
81154;SDS011;70631;50.436;7.826;2023-08-12T11:23:07;3.03;;;1.80;;
81154;SDS011;70631;50.436;7.826;2023-08-12T11:25:34;3.63;;;1.77;;
81154;SDS011;70631;50.436;7.826;2023-08-12T11:28:00;3.17;;;1.85;;
81154;SDS011;70631;50.436;7.826;2023-08-12T11:30:26;4.63;;;2.80;;
81154;SDS011;70631;50.436;7.826;2023-08-12T11:32:52;3.85;;;1.80;;
81154;SDS011;70631;50.436;7.826;2023-08-12T11:35:19;2.20;;;2.00;;
81154;SDS011;70631;50.436;7.826;2023-08-12T11:37:46;5.32;;;2.10;;
81154;SDS011;70631;50.436;7.826;2023-08-12T11:40:14;2.67;;;1.70;;
81154;SDS011;70631;50.436;7.826;2023-08-12T11:42:41;2.58;;;1.88;;
81154;SDS011;70631;50.436;7.826;2023-08-12T11:45:08;3.38;;;1.75;;
81154;SDS011;70631;50.436;7.826;2023-08-12T11:47:34;3.92;;;2.03;;
81154;SDS011;70631;50.436;7.826;2023-08-12T11:50:06;3.50;;;2.10;;
81154;SDS011;70631;50.436;7.826;2023-08-12T11:52:33;2.83;;;2.28;;
81154;SDS011;70631;50.436;7.826;2023-08-12T11:54:59;5.65;;;2.10;;
81154;SDS011;70631;50.436;7.826;2023-08-12T11:57:25;3.60;;;1.83;;
81154;SDS011;70631;50.436;7.826;2023-08-12T11:59:51;4.90;;;2.55;;
81154;SDS011;70631;50.436;7.826;2023-08-12T12:02:16;3.72;;;2.33;;
81154;SDS011;70631;50.436;7.826;2023-08-12T12:04:42;5.33;;;2.13;;
81154;SDS011;70631;50.436;7.826;2023-08-12T12:07:23;2.78;;;2.05;;
81154;SDS011;70631;50.436;7.826;2023-08-12T12:09:51;4.05;;;1.98;;
81154;SDS011;70631;50.436;7.826;2023-08-12T12:12:17;4.47;;;1.85;;
81154;SDS011;70631;50.436;7.826;2023-08-12T12:14:43;2.42;;;2.03;;
81154;SDS011;70631;50.436;7.826;2023-08-12T12:17:08;2.93;;;2.20;;
81154;SDS011;70631;50.436;7.826;2023-08-12T12:19:35;2.95;;;1.80;;
81154;SDS011;70631;50.436;7.826;2023-08-12T12:22:01;2.37;;;1.83;;
81154;SDS011;70631;50.436;7.826;2023-08-12T12:24:28;3.08;;;2.17;;
81154;SDS011;70631;50.436;7.826;2023-08-12T12:26:54;2.50;;;2.17;;
81154;SDS011;70631;50.436;7.826;2023-08-12T12:29:21;2.80;;;2.53;;
81154;SDS011;70631;50.436;7.826;2023-08-12T12:31:46;2.87;;;2.00;;
81154;SDS011;70631;50.436;7.826;2023-08-12T12:34:11;2.97;;;1.80;;
81154;SDS011;70631;50.436;7.826;2023-08-12T12:36:37;2.67;;;2.00;;
81154;SDS011;70631;50.436;7.826;2023-08-12T12:39:03;2.33;;;2.13;;
81154;SDS011;70631;50.436;7.826;2023-08-12T12:41:29;3.55;;;2.38;;
81154;SDS011;70631;50.436;7.826;2023-08-12T12:43:55;4.35;;;2.08;;
81154;SDS011;70631;50.436;7.826;2023-08-12T12:46:21;2.70;;;1.80;;
81154;SDS011;70631;50.436;7.826;2023-08-12T12:48:46;2.40;;;2.20;;
81154;SDS011;70631;50.436;7.826;2023-08-12T12:51:12;2.40;;;1.67;;
81154;SDS011;70631;50.436;7.826;2023-08-12T12:53:38;3.15;;;1.70;;
81154;SDS011;70631;50.436;7.826;2023-08-12T12:56:03;3.80;;;2.28;;
81154;SDS011;70631;50.436;7.826;2023-08-12T12:58:32;2.38;;;1.83;;
81154;SDS011;70631;50.436;7.826;2023-08-12T13:00:59;2.78;;;1.70;;
81154;SDS011;70631;50.436;7.826;2023-08-12T13:03:25;3.92;;;2.03;;
81154;SDS011;70631;50.436;7.826;2023-08-12T13:05:50;2.33;;;1.80;;
81154;SDS011;70631;50.436;7.826;2023-08-12T13:08:16;2.33;;;2.13;;
81154;SDS011;70631;50.436;7.826;2023-08-12T13:10:41;2.13;;;1.65;;
81154;SDS011;70631;50.436;7.826;2023-08-12T13:13:07;2.60;;;1.90;;
81154;SDS011;70631;50.436;7.826;2023-08-12T13:15:32;2.50;;;2.30;;
81154;SDS011;70631;50.436;7.826;2023-08-12T13:17:57;3.10;;;1.97;;
81154;SDS011;70631;50.436;7.826;2023-08-12T13:20:22;4.23;;;2.33;;
81154;SDS011;70631;50.436;7.826;2023-08-12T13:22:48;5.38;;;2.13;;
81154;SDS011;70631;50.436;7.826;2023-08-12T13:25:13;2.77;;;1.57;;
81154;SDS011;70631;50.436;7.826;2023-08-12T13:27:38;2.50;;;1.90;;
81154;SDS011;70631;50.436;7.826;2023-08-12T13:30:04;3.27;;;2.23;;
81154;SDS011;70631;50.436;7.826;2023-08-12T13:32:30;2.50;;;1.85;;
81154;SDS011;70631;50.436;7.826;2023-08-12T13:34:56;2.97;;;2.10;;
81154;SDS011;70631;50.436;7.826;2023-08-12T13:37:21;3.43;;;2.33;;
81154;SDS011;70631;50.436;7.826;2023-08-12T13:39:46;9.07;;;3.17;;
81154;SDS011;70631;50.436;7.826;2023-08-12T13:42:11;7.77;;;3.47;;
81154;SDS011;70631;50.436;7.826;2023-08-12T13:44:37;3.10;;;2.20;;
81154;SDS011;70631;50.436;7.826;2023-08-12T13:47:02;3.80;;;2.42;;
81154;SDS011;70631;50.436;7.826;2023-08-12T13:49:27;2.93;;;2.30;;
81154;SDS011;70631;50.436;7.826;2023-08-12T13:51:52;2.33;;;2.10;;
81154;SDS011;70631;50.436;7.826;2023-08-12T13:54:18;3.10;;;2.50;;
81154;SDS011;70631;50.436;7.826;2023-08-12T13:56:43;4.87;;;2.27;;
81154;SDS011;70631;50.436;7.826;2023-08-12T13:59:08;2.53;;;2.03;;
81154;SDS011;70631;50.436;7.826;2023-08-12T14:01:33;3.10;;;1.93;;
81154;SDS011;70631;50.436;7.826;2023-08-12T14:03:59;3.50;;;2.17;;
81154;SDS011;70631;50.436;7.826;2023-08-12T14:06:24;5.07;;;2.87;;
81154;SDS011;70631;50.436;7.826;2023-08-12T14:08:49;4.23;;;2.07;;
81154;SDS011;70631;50.436;7.826;2023-08-12T14:11:14;2.60;;;1.80;;
81154;SDS011;70631;50.436;7.826;2023-08-12T14:13:40;2.13;;;1.63;;
81154;SDS011;70631;50.436;7.826;2023-08-12T14:16:05;1.73;;;1.63;;
81154;SDS011;70631;50.436;7.826;2023-08-12T14:18:31;2.30;;;1.83;;
81154;SDS011;70631;50.436;7.826;2023-08-12T14:20:56;1.88;;;1.50;;
81154;SDS011;70631;50.436;7.826;2023-08-12T14:23:21;1.70;;;1.53;;
81154;SDS011;70631;50.436;7.826;2023-08-12T14:25:48;2.20;;;1.80;;
81154;SDS011;70631;50.436;7.826;2023-08-12T14:28:13;2.50;;;1.70;;
81154;SDS011;70631;50.436;7.826;2023-08-12T14:30:38;2.20;;;1.80;;
81154;SDS011;70631;50.436;7.826;2023-08-12T14:33:03;3.10;;;2.00;;
81154;SDS011;70631;50.436;7.826;2023-08-12T14:35:29;2.40;;;2.15;;